Time;durP1;ratioP1;P1;durP2;ratioP2;P2;SDS_P1;SDS_P2;PMS_P1;PMS_P2;Temp;Humidity;BMP_temperature;BMP_pressure;BME280_temperature;BME280_humidity;BME280_pressure;Samples;Min_cycle;Max_cycle;Signal;HPM_P1;HPM_P2
2023/04/26 00:00:16;;;;;;;5.88;1.95;;;;;;;3.61;98.99;98525.69;4199565;28;20024;-71
2023/04/26 00:02:17;;;;;;;5.35;2.05;;;;;;;3.64;98.61;98533.22;4199826;28;20032;-70
2023/04/26 00:04:17;;;;;;;6.30;2.15;;;;;;;3.61;98.81;98526.50;4198870;28;20036;-70
2023/04/26 00:06:17;;;;;;;4.50;1.83;;;;;;;3.61;98.64;98531.16;4201323;28;20396;-70
2023/04/26 00:08:18;;;;;;;4.35;1.77;;;;;;;3.59;99.52;98530.69;4196946;28;20468;-70
2023/04/26 00:10:18;;;;;;;6.53;1.95;;;;;;;3.52;99.33;98530.41;4199792;28;20024;-70
2023/04/26 00:12:19;;;;;;;8.10;1.73;;;;;;;3.45;100.00;98528.19;4199961;28;20050;-70
2023/04/26 00:14:20;;;;;;;3.85;1.73;;;;;;;3.41;100.00;98537.41;4199397;28;20430;-70
2023/04/26 00:16:20;;;;;;;4.35;2.20;;;;;;;3.36;100.00;98533.69;4200498;28;20044;-70
2023/04/26 00:18:20;;;;;;;3.00;2.05;;;;;;;3.32;100.00;98540.97;4199097;27;20052;-70
2023/04/26 00:20:21;;;;;;;3.30;2.03;;;;;;;3.31;100.00;98538.53;4198388;28;20476;-70
2023/04/26 00:22:21;;;;;;;3.35;2.15;;;;;;;3.27;100.00;98532.94;4199282;28;20503;-70
2023/04/26 00:24:21;;;;;;;4.38;2.03;;;;;;;3.26;100.00;98544.22;4198935;28;20052;-70
2023/04/26 00:26:22;;;;;;;3.15;1.98;;;;;;;3.24;100.00;98535.53;4199641;28;20058;-70
2023/04/26 00:28:22;;;;;;;6.28;1.70;;;;;;;3.24;100.00;98538.28;4199174;28;20477;-70
2023/04/26 00:30:23;;;;;;;2.70;1.85;;;;;;;3.25;100.00;98542.63;4200824;28;20060;-70
2023/04/26 00:32:23;;;;;;;4.07;1.90;;;;;;;3.23;100.00;98550.34;4198318;28;20075;-70
2023/04/26 00:34:23;;;;;;;3.42;1.92;;;;;;;3.19;100.00;98549.38;4199570;28;20076;-70
2023/04/26 00:36:24;;;;;;;5.15;2.08;;;;;;;3.19;100.00;98549.38;4201041;28;20492;-70
2023/04/26 00:38:24;;;;;;;7.75;2.55;;;;;;;3.10;100.00;98549.41;4197337;28;20075;-70
2023/04/26 00:40:25;;;;;;;4.75;1.90;;;;;;;3.09;100.00;98556.03;4199658;28;20361;-70
2023/04/26 00:42:26;;;;;;;2.97;1.75;;;;;;;3.16;100.00;98556.31;4196374;28;20086;-70
2023/04/26 00:44:26;;;;;;;4.70;1.83;;;;;;;3.11;100.00;98553.75;4197040;28;20456;-70
2023/04/26 00:46:28;;;;;;;6.88;2.00;;;;;;;3.04;100.00;98548.78;4198541;28;20032;-70
2023/04/26 00:48:29;;;;;;;6.75;2.20;;;;;;;3.04;100.00;98553.44;4200916;28;20066;-70
2023/04/26 00:50:30;;;;;;;4.78;2.00;;;;;;;2.99;100.00;98545.44;4196670;28;20060;-70
2023/04/26 00:52:30;;;;;;;3.53;2.13;;;;;;;2.99;100.00;98548.97;4195275;28;20085;-70
2023/04/26 00:54:31;;;;;;;5.95;2.05;;;;;;;2.97;100.00;98544.94;4199424;28;20032;-70
2023/04/26 00:56:32;;;;;;;2.97;1.80;;;;;;;2.93;100.00;98547.53;4198025;28;20123;-70
2023/04/26 00:58:32;;;;;;;2.20;1.75;;;;;;;2.96;100.00;98551.53;4201880;28;20089;-70
2023/04/26 01:00:32;;;;;;;5.75;2.35;;;;;;;2.97;100.00;98544.94;4198741;28;20035;-70
2023/04/26 01:02:33;;;;;;;1.98;1.60;;;;;;;2.95;100.00;98549.94;4199651;28;20058;-70
2023/04/26 01:04:33;;;;;;;2.75;1.75;;;;;;;2.90;100.00;98550.13;4195915;28;20056;-70
2023/04/26 01:06:37;;;;;;;4.38;1.90;;;;;;;2.84;100.00;98551.44;4198436;28;20032;-70
2023/04/26 01:08:37;;;;;;;4.68;2.40;;;;;;;2.78;100.00;98546.13;4199057;28;20048;-70
2023/04/26 01:10:39;;;;;;;3.50;1.60;;;;;;;2.73;100.00;98548.22;4198176;28;20032;-70
2023/04/26 01:12:39;;;;;;;2.47;1.60;;;;;;;2.67;100.00;98547.59;4198618;28;20080;-70
2023/04/26 01:14:40;;;;;;;6.25;2.10;;;;;;;2.64;100.00;98553.69;4196461;28;20442;-70
2023/04/26 01:16:40;;;;;;;2.47;1.65;;;;;;;2.60;100.00;98543.75;4202142;28;20090;-70
2023/04/26 01:18:41;;;;;;;4.28;2.00;;;;;;;2.57;100.00;98556.16;4197530;28;20123;-70
2023/04/26 01:20:42;;;;;;;4.45;2.78;;;;;;;2.52;100.00;98548.91;4198329;28;20378;-70
2023/04/26 01:22:42;;;;;;;3.80;1.92;;;;;;;2.51;100.00;98554.69;4198084;28;20477;-70
2023/04/26 01:24:45;;;;;;;6.93;2.80;;;;;;;2.45;100.00;98554.06;4198292;28;20036;-70
2023/04/26 01:26:46;;;;;;;2.50;1.88;;;;;;;2.42;100.00;98551.97;4198854;28;20036;-70
2023/04/26 01:28:48;;;;;;;4.05;1.48;;;;;;;2.39;100.00;98546.34;4199513;28;20036;-70
2023/04/26 01:30:48;;;;;;;7.47;1.92;;;;;;;2.38;100.00;98544.75;4199212;28;20079;-70
2023/04/26 01:32:50;;;;;;;4.53;2.10;;;;;;;2.35;100.00;98543.47;4196659;28;20469;-70
2023/04/26 01:34:50;;;;;;;4.88;2.00;;;;;;;2.37;100.00;98548.59;4200787;28;20123;-70
2023/04/26 01:36:51;;;;;;;2.95;1.70;;;;;;;2.37;100.00;98546.66;4198862;27;20060;-70
2023/04/26 01:38:51;;;;;;;3.05;1.92;;;;;;;2.38;100.00;98548.28;4198384;28;20058;-70
2023/04/26 01:40:51;;;;;;;7.63;2.30;;;;;;;2.39;100.00;98558.06;4193728;28;20051;-70
2023/04/26 01:42:52;;;;;;;4.55;1.92;;;;;;;2.37;100.00;98556.78;4197763;28;20650;-70
2023/04/26 01:44:52;;;;;;;4.82;1.95;;;;;;;2.38;100.00;98553.72;4193189;28;20076;-70
2023/04/26 01:46:52;;;;;;;2.60;1.95;;;;;;;2.34;100.00;98550.06;4199998;28;20036;-70
2023/04/26 01:48:53;;;;;;;4.20;2.20;;;;;;;2.37;100.00;98557.59;4198492;28;20475;-70
2023/04/26 01:50:53;;;;;;;3.63;2.13;;;;;;;2.30;100.00;98557.28;4198984;28;20079;-70
2023/04/26 01:52:53;;;;;;;4.82;2.38;;;;;;;2.29;100.00;98555.66;4197387;28;20044;-70
2023/04/26 01:54:54;;;;;;;5.03;2.47;;;;;;;2.25;100.00;98560.97;4202170;28;20050;-70
2023/04/26 01:56:54;;;;;;;5.03;2.30;;;;;;;2.20;100.00;98552.94;4199795;28;20155;-70
2023/04/26 01:58:55;;;;;;;5.50;2.05;;;;;;;2.27;100.00;98554.41;4196857;28;20044;-70
2023/04/26 02:00:56;;;;;;;5.15;2.38;;;;;;;2.28;100.00;98551.34;4195303;28;20032;-70
2023/04/26 02:02:57;;;;;;;3.78;2.33;;;;;;;2.25;100.00;98550.06;4197610;28;20170;-70
2023/04/26 02:04:57;;;;;;;5.93;2.13;;;;;;;2.32;100.00;98552.31;4203784;28;20139;-70
2023/04/26 02:06:57;;;;;;;5.82;2.67;;;;;;;2.33;100.00;98553.91;4197330;28;20040;-70
2023/04/26 02:08:58;;;;;;;5.13;2.40;;;;;;;2.25;100.00;98550.06;4198778;28;20037;-70
2023/04/26 02:10:58;;;;;;;3.25;2.40;;;;;;;2.24;100.00;98553.91;4200019;28;20044;-70
2023/04/26 02:12:58;;;;;;;3.50;2.42;;;;;;;2.17;100.00;98547.31;4195918;28;20038;-70
2023/04/26 02:14:58;;;;;;;6.13;2.53;;;;;;;2.17;100.00;98550.88;4199606;28;20036;-69
2023/04/26 02:17:00;;;;;;;4.47;2.55;;;;;;;2.19;100.00;98556.78;4200161;28;20605;-70
2023/04/26 02:19:01;;;;;;;4.10;2.00;;;;;;;2.19;100.00;98551.34;4195522;28;20140;-70
2023/04/26 02:21:01;;;;;;;4.82;2.67;;;;;;;2.20;100.00;98555.66;4196421;28;20033;-70
2023/04/26 02:23:02;;;;;;;6.53;2.60;;;;;;;2.20;100.00;98554.88;4200314;28;20040;-70
2023/04/26 02:25:02;;;;;;;5.40;2.40;;;;;;;2.17;100.00;98556.31;4201835;28;20052;-70
2023/04/26 02:27:03;;;;;;;5.57;2.65;;;;;;;2.18;100.00;98554.41;4203307;28;20044;-70
2023/04/26 02:29:04;;;;;;;6.45;2.78;;;;;;;2.18;100.00;98551.66;4202038;28;20056;-70
2023/04/26 02:31:04;;;;;;;3.58;2.13;;;;;;;2.17;100.00;98555.53;4195934;28;20048;-70
2023/04/26 02:33:05;;;;;;;5.00;2.20;;;;;;;2.16;100.00;98546.53;4201868;28;20052;-70
2023/04/26 02:35:05;;;;;;;5.63;2.78;;;;;;;2.14;100.00;98546.03;4203013;28;20040;-70
2023/04/26 02:37:06;;;;;;;5.93;2.40;;;;;;;2.12;100.00;98542.81;4202184;28;20040;-70
2023/04/26 02:39:06;;;;;;;4.90;2.50;;;;;;;2.10;100.00;98550.53;4204315;28;20499;-70
2023/04/26 02:41:06;;;;;;;4.22;2.63;;;;;;;2.02;100.00;98553.25;4202164;28;20542;-70
2023/04/26 02:43:09;;;;;;;4.05;2.40;;;;;;;1.93;100.00;98550.53;4201590;28;20040;-70
2023/04/26 02:45:09;;;;;;;4.28;2.78;;;;;;;1.91;100.00;98544.59;4199941;28;20063;-70
2023/04/26 02:47:09;;;;;;;4.47;2.38;;;;;;;1.84;100.00;98550.50;4198576;28;20067;-70
2023/04/26 02:49:10;;;;;;;6.00;2.97;;;;;;;1.80;100.00;98548.72;4197871;28;20055;-70
2023/04/26 02:51:10;;;;;;;4.03;2.60;;;;;;;1.74;100.00;98548.09;4197863;28;20052;-70
2023/04/26 02:53:11;;;;;;;5.70;2.55;;;;;;;1.63;100.00;98542.13;4203012;28;20044;-70
2023/04/26 02:55:11;;;;;;;3.40;2.40;;;;;;;1.57;100.00;98539.84;4202837;28;20047;-70
2023/04/26 02:57:12;;;;;;;6.55;2.53;;;;;;;1.50;100.00;98548.53;4202605;28;20044;-70
2023/04/26 02:59:12;;;;;;;8.35;3.20;;;;;;;1.48;100.00;98541.75;4195741;28;20053;-70
2023/04/26 03:01:13;;;;;;;11.10;3.13;;;;;;;1.47;100.00;98545.59;4198376;28;20468;-70
2023/04/26 03:03:14;;;;;;;5.47;3.17;;;;;;;1.43;100.00;98544.66;4203447;28;20233;-70
2023/04/26 03:05:14;;;;;;;4.65;3.00;;;;;;;1.38;100.00;98551.03;4196782;28;20100;-70
2023/04/26 03:07:15;;;;;;;9.05;3.33;;;;;;;1.38;100.00;98551.84;4201688;28;20495;-70
2023/04/26 03:09:16;;;;;;;5.85;2.90;;;;;;;1.42;100.00;98554.75;4199753;28;20476;-70
2023/04/26 03:11:16;;;;;;;4.57;2.67;;;;;;;1.44;100.00;98551.69;4200050;28;20040;-70
2023/04/26 03:13:17;;;;;;;5.85;3.40;;;;;;;1.38;100.00;98546.38;4200900;28;20372;-70
2023/04/26 03:15:17;;;;;;;6.03;3.20;;;;;;;1.32;100.00;98542.19;4200052;28;20474;-70
2023/04/26 03:17:18;;;;;;;7.85;2.95;;;;;;;1.32;100.00;98555.00;4197443;28;20499;-70
2023/04/26 03:19:18;;;;;;;5.40;3.40;;;;;;;1.29;100.00;98552.94;4195499;28;20107;-70
2023/04/26 03:21:19;;;;;;;4.28;3.05;;;;;;;1.28;100.00;98554.03;4202686;28;20465;-70
2023/04/26 03:23:23;;;;;;;3.92;2.67;;;;;;;1.26;100.00;98559.00;4196299;28;20044;-70
2023/04/26 03:25:23;;;;;;;5.45;3.20;;;;;;;1.26;100.00;98550.84;4197445;28;20044;-70
2023/04/26 03:27:23;;;;;;;5.75;2.72;;;;;;;1.27;100.00;98558.69;4202237;28;20075;-70
2023/04/26 03:29:23;;;;;;;5.82;3.13;;;;;;;1.25;100.00;98563.66;4195609;28;20415;-70
2023/04/26 03:31:24;;;;;;;6.60;3.58;;;;;;;1.18;100.00;98559.78;4197859;28;20146;-70
2023/04/26 03:33:24;;;;;;;6.03;3.30;;;;;;;1.13;100.00;98564.25;4197691;28;20115;-70
2023/04/26 03:35:24;;;;;;;7.82;3.17;;;;;;;1.09;100.00;98568.72;4198323;27;20052;-70
2023/04/26 03:37:25;;;;;;;6.13;3.45;;;;;;;1.03;100.00;98567.25;4194862;28;20048;-70
2023/04/26 03:39:25;;;;;;;6.18;3.33;;;;;;;1.04;100.00;98566.13;4198703;28;20063;-70
2023/04/26 03:41:26;;;;;;;5.45;3.13;;;;;;;1.03;100.00;98575.41;4197296;28;20047;-70
2023/04/26 03:43:26;;;;;;;5.85;3.30;;;;;;;0.94;100.00;98560.94;4201339;28;20048;-70
2023/04/26 03:45:26;;;;;;;9.45;3.42;;;;;;;0.94;100.00;98571.84;4200401;28;20085;-70
2023/04/26 03:47:26;;;;;;;6.32;3.20;;;;;;;0.89;100.00;98571.16;4200205;28;20044;-70
2023/04/26 03:49:27;;;;;;;8.77;3.70;;;;;;;0.90;100.00;98573.56;4203590;28;20047;-70
2023/04/26 03:51:27;;;;;;;7.85;3.58;;;;;;;0.90;100.00;98581.75;4202284;28;20046;-70
2023/04/26 03:53:28;;;;;;;12.40;3.60;;;;;;;0.84;100.00;98588.47;4201401;28;20050;-70
2023/04/26 03:55:28;;;;;;;6.65;3.10;;;;;;;0.82;100.00;98577.84;4197427;28;20032;-70
2023/04/26 03:57:28;;;;;;;6.85;3.50;;;;;;;0.78;100.00;98584.25;4203410;28;20673;-70
2023/04/26 03:59:29;;;;;;;11.00;4.05;;;;;;;0.72;100.00;98582.75;4201495;28;20064;-70
2023/04/26 04:01:29;;;;;;;6.75;3.30;;;;;;;0.69;100.00;98577.94;4194242;28;20067;-70
2023/04/26 04:03:29;;;;;;;7.30;3.05;;;;;;;0.72;100.00;98585.50;4197570;28;20148;-70
2023/04/26 04:05:30;;;;;;;8.95;3.80;;;;;;;0.72;100.00;98583.56;4199708;28;20029;-70
2023/04/26 04:07:31;;;;;;;5.72;3.55;;;;;;;0.74;100.00;98591.41;4198654;28;20051;-70
2023/04/26 04:09:32;;;;;;;5.90;3.33;;;;;;;0.75;100.00;98584.88;4202291;28;20048;-70
2023/04/26 04:11:32;;;;;;;8.25;3.60;;;;;;;0.78;100.00;98582.34;4201702;28;20047;-70
2023/04/26 04:13:32;;;;;;;10.02;4.20;;;;;;;0.76;100.00;98587.28;4200392;28;20322;-70
2023/04/26 04:15:33;;;;;;;8.90;3.03;;;;;;;0.78;100.00;98579.59;4199371;28;20036;-70
2023/04/26 04:17:33;;;;;;;7.70;3.40;;;;;;;0.77;100.00;98580.72;4199544;28;20048;-70
2023/04/26 04:19:33;;;;;;;7.22;3.13;;;;;;;0.74;100.00;98580.53;4201023;28;20087;-70
2023/04/26 04:21:34;;;;;;;8.27;4.40;;;;;;;0.73;100.00;98584.38;4199182;28;20634;-70
2023/04/26 04:23:34;;;;;;;7.25;5.13;;;;;;;0.71;100.00;98581.16;4203404;28;20072;-70
2023/04/26 04:25:34;;;;;;;11.82;6.63;;;;;;;0.67;100.00;98585.63;4199023;28;20489;-70
2023/04/26 04:27:36;;;;;;;15.43;6.88;;;;;;;0.65;100.00;98585.91;4200966;28;20041;-70
2023/04/26 04:29:37;;;;;;;10.67;5.87;;;;;;;0.66;100.00;98590.25;4203125;28;20036;-70
2023/04/26 04:31:38;;;;;;;10.63;4.85;;;;;;;0.63;100.00;98590.88;4198349;28;20275;-70
2023/04/26 04:33:39;;;;;;;8.43;5.20;;;;;;;0.61;100.00;98590.38;4194989;28;20444;-70
2023/04/26 04:35:40;;;;;;;8.48;5.60;;;;;;;0.60;100.00;98583.34;4195441;28;20429;-70
2023/04/26 04:37:40;;;;;;;10.82;4.53;;;;;;;0.63;100.00;98596.31;4196670;28;20063;-70
2023/04/26 04:39:41;;;;;;;11.88;6.07;;;;;;;0.62;100.00;98591.19;4198450;28;20044;-70
2023/04/26 04:41:46;;;;;;;12.90;8.15;;;;;;;0.59;100.00;98584.47;4197075;28;20045;-70
2023/04/26 04:43:47;;;;;;;11.77;6.43;;;;;;;0.61;100.00;98593.13;4194665;28;20520;-70
2023/04/26 04:45:48;;;;;;;13.07;5.22;;;;;;;0.61;100.00;98595.84;4197631;28;20151;-70
2023/04/26 04:47:48;;;;;;;6.72;4.25;;;;;;;0.62;100.00;98602.88;4198147;28;20365;-70
2023/04/26 04:49:48;;;;;;;8.95;5.07;;;;;;;0.63;100.00;98598.25;4197042;28;20203;-70
2023/04/26 04:51:49;;;;;;;9.13;4.72;;;;;;;0.68;100.00;98596.22;4197881;28;20120;-70
2023/04/26 04:53:50;;;;;;;9.00;4.25;;;;;;;0.66;100.00;98597.63;4194117;28;20131;-70
2023/04/26 04:55:50;;;;;;;10.13;4.00;;;;;;;0.66;100.00;98594.88;4142462;27;20708;-70
2023/04/26 04:57:51;;;;;;;9.40;3.97;;;;;;;0.65;100.00;98601.44;4217068;28;20032;-70
2023/04/26 04:59:52;;;;;;;8.35;4.43;;;;;;;0.71;100.00;98605.66;4194366;28;20055;-70
2023/04/26 05:01:52;;;;;;;11.95;4.03;;;;;;;0.72;100.00;98601.81;4195150;28;20046;-70
2023/04/26 05:03:52;;;;;;;9.80;4.10;;;;;;;0.70;100.00;98606.78;4195187;28;20104;-70
2023/04/26 05:05:53;;;;;;;6.10;4.00;;;;;;;0.72;100.00;98604.56;4194180;28;20068;-70
2023/04/26 05:07:53;;;;;;;8.02;4.00;;;;;;;0.77;100.00;98604.44;4196357;28;20055;-70
2023/04/26 05:09:53;;;;;;;10.48;4.68;;;;;;;0.82;100.00;98609.75;4200575;28;20753;-70
2023/04/26 05:11:53;;;;;;;11.70;5.25;;;;;;;0.89;100.00;98601.13;4196982;28;20072;-70
2023/04/26 05:13:54;;;;;;;6.35;4.30;;;;;;;0.99;100.00;98615.28;4195024;28;20429;-70
2023/04/26 05:15:54;;;;;;;8.52;5.00;;;;;;;1.04;100.00;98607.00;4193898;28;20380;-70
2023/04/26 05:17:55;;;;;;;11.27;4.90;;;;;;;1.10;100.00;98613.94;4196834;28;20488;-70
2023/04/26 05:19:55;;;;;;;7.05;4.30;;;;;;;1.17;100.00;98624.38;4196344;28;20059;-70
2023/04/26 05:21:56;;;;;;;11.98;6.18;;;;;;;1.24;100.00;98613.00;4197994;28;20112;-70
2023/04/26 05:23:57;;;;;;;11.82;4.95;;;;;;;1.29;100.00;98619.16;4196412;28;20154;-70
2023/04/26 05:26:01;;;;;;;12.60;6.45;;;;;;;1.35;100.00;98626.06;4198338;28;20082;-70
2023/04/26 05:28:01;;;;;;;16.30;6.65;;;;;;;1.45;100.00;98621.47;4197015;28;20158;-71
2023/04/26 05:30:07;;;;;;;12.07;6.25;;;;;;;1.52;100.00;98619.91;4196886;28;20115;-70
2023/04/26 05:32:07;;;;;;;13.35;7.00;;;;;;;1.65;100.00;98629.06;4198470;28;20415;-70
2023/04/26 05:34:07;;;;;;;15.00;7.07;;;;;;;1.72;100.00;98626.69;4196814;28;20070;-70
2023/04/26 05:36:08;;;;;;;21.25;7.22;;;;;;;1.81;100.00;98626.72;4198856;28;20028;-70
2023/04/26 05:38:08;;;;;;;11.98;6.70;;;;;;;1.91;100.00;98638.16;4197109;28;20032;-70
2023/04/26 05:40:11;;;;;;;13.65;6.22;;;;;;;1.98;100.00;98630.28;4197108;28;20368;-70
2023/04/26 05:42:11;;;;;;;8.77;4.22;;;;;;;2.04;100.00;98635.59;4193492;28;20028;-70
2023/04/26 05:44:12;;;;;;;12.45;4.20;;;;;;;2.15;100.00;98632.28;4194620;28;20022;-71
2023/04/26 05:46:13;;;;;;;8.07;4.07;;;;;;;2.23;100.00;98631.47;4195780;28;20090;-70
2023/04/26 05:48:13;;;;;;;8.85;3.70;;;;;;;2.25;100.00;98634.69;4197439;28;20581;-70
2023/04/26 05:50:14;;;;;;;12.73;4.30;;;;;;;2.25;100.00;98642.09;4196748;28;20317;-70
2023/04/26 05:52:14;;;;;;;12.20;3.92;;;;;;;2.30;100.00;98650.09;4193641;28;20021;-70
2023/04/26 05:54:14;;;;;;;14.00;4.15;;;;;;;2.35;100.00;98649.16;4196782;28;20494;-70
2023/04/26 05:56:15;;;;;;;6.85;4.20;;;;;;;2.35;100.00;98646.41;4199397;27;20031;-70
2023/04/26 05:58:15;;;;;;;12.68;4.05;;;;;;;2.40;100.00;98649.81;4194318;28;20066;-70
2023/04/26 06:00:18;;;;;;;9.00;3.90;;;;;;;2.58;100.00;98647.88;4198932;28;20036;-70
2023/04/26 06:02:18;;;;;;;12.60;3.70;;;;;;;2.68;100.00;98658.50;4203858;28;20076;-70
2023/04/26 06:04:18;;;;;;;7.55;3.88;;;;;;;2.76;100.00;98652.22;4197527;28;20051;-70
2023/04/26 06:06:19;;;;;;;6.53;4.10;;;;;;;2.86;100.00;98650.28;4198448;28;20337;-70
2023/04/26 06:08:20;;;;;;;10.20;4.35;;;;;;;2.88;100.00;98650.75;4202122;28;20091;-70
2023/04/26 06:10:20;;;;;;;7.93;4.13;;;;;;;2.87;100.00;98660.88;4201403;28;20434;-70
2023/04/26 06:12:20;;;;;;;7.28;3.97;;;;;;;2.91;100.00;98648.19;4197180;28;20074;-70
2023/04/26 06:14:21;;;;;;;8.10;3.85;;;;;;;3.01;100.00;98649.78;4200209;28;20088;-70
2023/04/26 06:16:21;;;;;;;10.68;3.63;;;;;;;3.14;100.00;98651.50;4201788;28;20036;-70
2023/04/26 06:18:22;;;;;;;9.57;3.85;;;;;;;3.22;100.00;98661.63;4204594;28;20032;-70
2023/04/26 06:20:22;;;;;;;10.00;3.55;;;;;;;3.30;100.00;98666.28;4204012;28;20689;-70
2023/04/26 06:22:22;;;;;;;6.15;3.28;;;;;;;3.33;100.00;98654.72;4203318;28;20094;-70
2023/04/26 06:24:25;;;;;;;10.75;3.80;;;;;;;3.47;100.00;98657.22;4203007;28;20052;-70
2023/04/26 06:26:25;;;;;;;7.88;3.58;;;;;;;3.54;100.00;98660.25;4198438;28;20040;-70
2023/04/26 06:28:26;;;;;;;20.35;6.00;;;;;;;3.57;100.00;98659.63;4199474;28;20051;-70
2023/04/26 06:30:26;;;;;;;6.85;3.22;;;;;;;3.65;100.00;98658.78;4201073;28;20040;-70
2023/04/26 06:32:27;;;;;;;6.47;3.05;;;;;;;3.61;100.00;98663.28;4200296;28;20086;-70
2023/04/26 06:34:27;;;;;;;9.45;3.40;;;;;;;3.66;100.00;98659.59;4206620;28;20279;-70
2023/04/26 06:36:28;;;;;;;6.88;3.17;;;;;;;3.72;100.00;98652.78;4201206;28;20115;-70
2023/04/26 06:38:28;;;;;;;6.63;3.28;;;;;;;3.75;100.00;98662.28;4200626;28;20046;-70
2023/04/26 06:40:28;;;;;;;6.03;2.88;;;;;;;3.49;100.00;98663.19;4200765;28;20043;-70
2023/04/26 06:42:28;;;;;;;8.13;3.65;;;;;;;3.65;100.00;98664.25;4200995;28;20379;-70
2023/04/26 06:44:29;;;;;;;10.35;3.10;;;;;;;3.70;100.00;98663.25;4201832;28;20044;-70
2023/04/26 06:46:30;;;;;;;7.97;3.17;;;;;;;3.75;100.00;98668.56;4199779;28;20192;-70
2023/04/26 06:48:30;;;;;;;8.23;3.03;;;;;;;3.77;100.00;98674.50;4200056;28;20127;-70
2023/04/26 06:50:30;;;;;;;8.23;3.03;;;;;;;3.77;100.00;98663.56;4202066;28;20360;-70
2023/04/26 06:52:31;;;;;;;9.70;3.10;;;;;;;3.83;100.00;98659.50;4199934;28;20388;-70
2023/04/26 06:54:32;;;;;;;7.63;2.90;;;;;;;3.95;100.00;98662.34;4202746;28;20696;-70
2023/04/26 06:56:32;;;;;;;5.40;3.10;;;;;;;4.10;100.00;98660.19;4200997;28;20210;-70
2023/04/26 06:58:32;;;;;;;4.57;2.92;;;;;;;4.20;100.00;98662.53;4201783;28;20044;-70
2023/04/26 07:00:32;;;;;;;5.45;2.63;;;;;;;4.26;100.00;98669.44;4199518;28;20036;-70
2023/04/26 07:02:33;;;;;;;6.88;2.58;;;;;;;4.23;98.41;98661.88;4205349;28;20051;-70
2023/04/26 07:04:33;;;;;;;8.77;2.75;;;;;;;4.22;98.11;98672.03;4202486;28;20467;-70
2023/04/26 07:06:33;;;;;;;5.03;2.72;;;;;;;4.20;99.53;98662.53;4198970;28;20036;-70
2023/04/26 07:08:34;;;;;;;6.90;2.55;;;;;;;4.14;98.28;98664.69;4202325;28;20501;-70
2023/04/26 07:10:34;;;;;;;6.38;3.00;;;;;;;4.13;97.08;98668.53;4200668;28;20102;-70
2023/04/26 07:12:34;;;;;;;8.85;2.75;;;;;;;4.26;96.60;98671.38;4197533;28;20065;-70
2023/04/26 07:14:37;;;;;;;6.20;2.28;;;;;;;4.34;96.54;98671.31;4203482;28;20040;-70
2023/04/26 07:16:37;;;;;;;4.30;2.42;;;;;;;4.45;94.96;98661.56;4200494;28;20033;-70
2023/04/26 07:18:41;;;;;;;5.50;2.92;;;;;;;4.34;95.38;98665.84;4200898;28;20439;-70
2023/04/26 07:20:41;;;;;;;7.88;3.35;;;;;;;4.29;97.02;98676.97;4199989;28;20043;-70
2023/04/26 07:22:42;;;;;;;6.88;2.78;;;;;;;4.18;97.23;98675.75;4199712;28;20036;-70
2023/04/26 07:24:42;;;;;;;9.18;2.53;;;;;;;4.21;95.29;98675.09;4196554;28;20036;-70
2023/04/26 07:26:42;;;;;;;6.43;2.58;;;;;;;4.22;94.95;98666.56;4198030;28;20037;-70
2023/04/26 07:28:43;;;;;;;9.77;3.40;;;;;;;4.25;94.91;98662.34;4201958;28;20048;-70
2023/04/26 07:30:43;;;;;;;9.13;3.33;;;;;;;4.19;94.75;98667.22;4205054;28;20465;-70
2023/04/26 07:32:43;;;;;;;8.77;4.47;;;;;;;4.30;93.90;98669.56;4195926;28;20052;-70
2023/04/26 07:34:44;;;;;;;8.82;2.92;;;;;;;4.45;94.27;98666.22;4200403;28;20035;-70
2023/04/26 07:36:44;;;;;;;8.05;3.22;;;;;;;4.73;94.31;98652.81;4200564;28;20123;-70
2023/04/26 07:38:44;;;;;;;8.90;2.70;;;;;;;4.59;95.16;98668.72;4202455;28;20443;-70
2023/04/26 07:40:45;;;;;;;9.20;2.28;;;;;;;4.58;90.85;98658.91;4198794;28;20124;-70
2023/04/26 07:42:45;;;;;;;9.00;3.55;;;;;;;4.73;93.86;98663.78;4200924;28;20091;-70
2023/04/26 07:44:47;;;;;;;9.02;4.80;;;;;;;4.96;92.57;98665.00;4202116;28;20051;-70
2023/04/26 07:46:47;;;;;;;9.10;3.40;;;;;;;4.91;91.97;98661.69;4203457;28;20032;-70
2023/04/26 07:48:47;;;;;;;7.82;2.88;;;;;;;4.75;90.64;98669.72;4206063;28;20438;-70
2023/04/26 07:50:48;;;;;;;5.13;2.85;;;;;;;4.90;89.84;98665.59;4199372;28;20439;-70
2023/04/26 07:52:48;;;;;;;7.75;3.67;;;;;;;4.77;90.43;98670.19;4202259;28;20101;-70
2023/04/26 07:54:48;;;;;;;6.00;2.47;;;;;;;4.74;87.72;98668.13;4201873;28;20060;-70
2023/04/26 07:56:49;;;;;;;7.80;3.85;;;;;;;4.79;86.91;98665.97;4203003;28;20036;-70
2023/04/26 07:58:49;;;;;;;9.55;3.35;;;;;;;4.61;85.79;98670.00;4198379;28;20105;-70
2023/04/26 08:00:50;;;;;;;8.55;4.25;;;;;;;4.67;86.87;98673.34;4196704;28;20033;-70
2023/04/26 08:02:50;;;;;;;9.60;4.88;;;;;;;4.90;88.19;98673.81;4199527;28;20449;-70
2023/04/26 08:04:51;;;;;;;11.95;3.33;;;;;;;5.06;89.85;98677.53;4199788;28;20433;-70
2023/04/26 08:06:51;;;;;;;6.93;2.55;;;;;;;4.81;86.07;98673.09;4199316;28;20065;-70
2023/04/26 08:08:52;;;;;;;6.65;1.83;;;;;;;4.77;86.23;98676.47;4199824;28;20048;-70
2023/04/26 08:10:53;;;;;;;5.82;2.08;;;;;;;4.56;87.81;98683.09;4201273;28;20032;-70
2023/04/26 08:12:55;;;;;;;5.88;2.50;;;;;;;4.60;89.04;98679.34;4197669;28;20401;-70
2023/04/26 08:14:55;;;;;;;4.28;2.05;;;;;;;4.54;90.46;98683.41;4201327;28;20062;-70
2023/04/26 08:16:55;;;;;;;5.57;2.40;;;;;;;4.62;89.02;98685.28;4200655;28;20198;-70
2023/04/26 08:19:01;;;;;;;9.48;3.03;;;;;;;4.56;88.29;98683.91;4198223;28;20471;-70
2023/04/26 08:21:01;;;;;;;8.00;2.80;;;;;;;4.63;87.19;98680.59;4200794;28;20054;-70
2023/04/26 08:23:02;;;;;;;3.75;2.38;;;;;;;4.62;86.43;98684.50;4198305;28;20453;-70
2023/04/26 08:25:03;;;;;;;4.28;1.95;;;;;;;4.58;85.37;98683.56;4194984;28;20040;-70
2023/04/26 08:27:04;;;;;;;3.72;2.20;;;;;;;4.77;82.77;98687.44;4199513;28;20043;-70
2023/04/26 08:29:05;;;;;;;3.83;2.15;;;;;;;4.96;82.96;98677.94;4199560;28;20037;-70
2023/04/26 08:31:05;;;;;;;5.32;2.00;;;;;;;5.19;82.44;98668.19;4201025;28;20055;-70
2023/04/26 08:33:08;;;;;;;4.10;2.25;;;;;;;5.56;83.95;98676.53;4196603;28;20044;-70
2023/04/26 08:35:08;;;;;;;4.05;2.30;;;;;;;5.64;82.38;98670.97;4193860;28;20491;-70
2023/04/26 08:37:09;;;;;;;3.30;2.10;;;;;;;5.38;78.49;98664.13;4197267;28;20032;-70
2023/04/26 08:39:11;;;;;;;6.45;2.00;;;;;;;5.34;79.65;98685.97;4195337;28;20420;-70
2023/04/26 08:41:13;;;;;;;5.03;1.75;;;;;;;5.10;76.76;98678.44;4199587;28;20408;-70
2023/04/26 08:43:15;;;;;;;;;;;;;;;5.14;75.70;98665.69;4202982;28;20044;-70
2023/04/26 08:45:15;;;;;;;5.28;2.13;;;;;;;4.92;76.26;98666.03;4197413;28;19916;-70
2023/04/26 08:47:21;;;;;;;6.20;2.22;;;;;;;5.30;78.59;98677.63;4199671;28;20037;-70
2023/04/26 08:49:38;;;;;;;2.78;1.92;;;;;;;5.52;77.49;98662.69;4198930;28;20677;-70
2023/04/26 08:51:40;;;;;;;5.72;2.30;;;;;;;5.52;80.29;98681.91;4195616;28;20032;-70
2023/04/26 08:53:41;;;;;;;9.25;2.50;;;;;;;5.38;79.56;98675.09;4201787;28;20127;-70
2023/04/26 08:55:47;;;;;;;6.45;2.38;;;;;;;5.21;79.54;98679.66;4197786;28;20052;-70
2023/04/26 08:57:49;;;;;;;3.63;2.08;;;;;;;5.16;79.97;98681.78;4200135;28;20058;-70
2023/04/26 08:59:52;;;;;;;6.17;2.30;;;;;;;4.97;81.98;98680.34;4200551;28;20388;-70
2023/04/26 09:01:52;;;;;;;2.78;2.00;;;;;;;5.27;83.60;98672.00;4200987;28;20032;-70
2023/04/26 09:03:54;;;;;;;4.10;2.10;;;;;;;5.52;83.15;98673.66;4197174;28;20119;-70
2023/04/26 09:05:54;;;;;;;4.57;1.65;;;;;;;5.73;79.84;98675.53;4202287;28;20052;-70
2023/04/26 09:08:04;;;;;;;3.40;1.73;;;;;;;5.83;79.70;98675.91;4197124;28;20136;-70
2023/04/26 09:10:05;;;;;;;5.95;2.10;;;;;;;5.72;78.95;98668.47;4198248;28;20472;-70
2023/04/26 09:12:05;;;;;;;6.70;3.15;;;;;;;5.56;79.63;98677.34;4198839;28;20075;-70
2023/04/26 09:14:05;;;;;;;17.55;5.95;;;;;;;5.59;76.63;98675.84;4198163;28;20020;-71
2023/04/26 09:16:06;;;;;;;7.85;3.90;;;;;;;5.48;74.91;98672.75;4199016;28;20020;-70
2023/04/26 09:18:20;;;;;;;15.55;5.28;;;;;;;5.48;74.54;98669.22;4198910;28;20039;-70
2023/04/26 09:20:27;;;;;;;7.45;3.05;;;;;;;5.54;73.59;98674.13;4198411;28;20117;-70
2023/04/26 09:22:27;;;;;;;6.53;3.38;;;;;;;5.71;74.10;98677.81;4195428;28;20388;-70
2023/04/26 09:24:45;;;;;;;5.03;2.28;;;;;;;5.73;75.91;98672.81;4200310;28;20047;-70
2023/04/26 09:27:00;;;;;;;5.85;2.13;;;;;;;5.85;74.67;98667.31;4200954;28;20098;-70
2023/04/26 09:29:17;;;;;;;5.82;2.38;;;;;;;5.78;74.03;98676.09;4195145;28;20515;-70